Time;durP1;ratioP1;P1;durP2;ratioP2;P2;SDS_P1;SDS_P2;PMS_P1;PMS_P2;Temp;Humidity;BMP_temperature;BMP_pressure;BME280_temperature;BME280_humidity;BME280_pressure;Samples;Min_cycle;Max_cycle;Signal;HPM_P1;HPM_P2
2022/07/24 00:01:50;;;;;;;10.40;9.50;;;23.60;99.90;;;;;;5007584;28;20180;-67
2022/07/24 00:04:15;;;;;;;10.93;9.87;;;23.60;99.90;;;;;;5007286;28;20184;-68
2022/07/24 00:06:41;;;;;;;11.20;10.30;;;23.60;99.90;;;;;;5007201;28;20183;-70
2022/07/24 00:09:07;;;;;;;11.17;10.17;;;23.60;99.90;;;;;;4989567;28;20207;-68
2022/07/24 00:11:33;;;;;;;11.10;10.10;;;23.60;99.90;;;;;;5007076;28;20911;-70
2022/07/24 00:13:59;;;;;;;11.60;10.60;;;23.60;99.90;;;;;;5006913;28;20679;-68
2022/07/24 00:16:24;;;;;;;9.93;9.00;;;23.50;99.90;;;;;;5006572;28;20407;-68
2022/07/24 00:18:50;;;;;;;11.73;10.67;;;23.50;99.90;;;;;;5006471;28;20246;-70
2022/07/24 00:21:16;;;;;;;11.27;10.27;;;23.50;99.90;;;;;;5006390;28;20254;-67
2022/07/24 00:23:42;;;;;;;11.53;10.17;;;23.50;99.90;;;;;;5006673;28;20211;-68
2022/07/24 00:26:09;;;;;;;10.97;10.17;;;23.40;99.90;;;;;;5006095;28;20215;-69
2022/07/24 00:28:35;;;;;;;10.70;9.80;;;23.40;99.90;;;;;;5006645;28;20513;-68
2022/07/24 00:31:00;;;;;;;10.50;9.60;;;23.40;99.90;;;;;;5006717;28;20424;-70
2022/07/24 00:33:26;;;;;;;11.17;10.17;;;23.40;99.90;;;;;;5006429;28;20300;-69
2022/07/24 00:35:51;;;;;;;11.07;10.13;;;23.40;99.90;;;;;;5006580;28;20180;-70
2022/07/24 00:38:17;;;;;;;12.37;11.37;;;23.40;99.90;;;;;;5005723;28;20207;-68
2022/07/24 00:40:43;;;;;;;12.07;11.00;;;23.30;99.90;;;;;;5006390;28;20230;-69
2022/07/24 00:43:09;;;;;;;10.77;9.80;;;23.30;99.90;;;;;;5006154;28;20210;-69
2022/07/24 00:45:34;;;;;;;12.13;11.10;;;23.50;99.90;;;;;;5006236;28;20721;-68
2022/07/24 00:48:00;;;;;;;11.87;10.87;;;23.70;99.90;;;;;;5005796;28;20565;-68
2022/07/24 00:50:26;;;;;;;10.97;10.07;;;23.70;99.90;;;;;;5006035;28;21289;-67
2022/07/24 00:52:53;;;;;;;11.37;10.47;;;23.70;99.90;;;;;;5006409;28;20196;-69
2022/07/24 00:55:20;;;;;;;11.40;10.30;;;23.70;99.90;;;;;;5006208;28;20437;-69
2022/07/24 00:57:48;;;;;;;10.20;9.30;;;23.70;99.90;;;;;;5005989;28;20459;-69
2022/07/24 01:00:15;;;;;;;10.90;9.97;;;23.60;99.90;;;;;;5005796;28;20451;-69
2022/07/24 01:02:41;;;;;;;10.70;9.80;;;23.60;99.90;;;;;;5005569;28;20498;-68
2022/07/24 01:05:09;;;;;;;10.67;9.77;;;23.50;99.90;;;;;;5005250;28;20846;-67
2022/07/24 01:07:35;;;;;;;10.90;10.00;;;23.40;99.90;;;;;;5006078;28;20411;-68
2022/07/24 01:10:01;;;;;;;10.70;9.73;;;23.40;99.90;;;;;;5005832;28;20489;-68
2022/07/24 01:12:27;;;;;;;10.40;9.47;;;23.30;99.90;;;;;;5006026;28;20411;-69
2022/07/24 01:14:53;;;;;;;10.20;9.40;;;23.30;99.90;;;;;;5005817;28;20175;-69
2022/07/24 01:17:19;;;;;;;9.83;9.13;;;23.30;99.90;;;;;;5005671;28;20463;-68
2022/07/24 01:19:45;;;;;;;9.97;9.17;;;23.20;99.90;;;;;;5005450;28;20228;-67
2022/07/24 01:22:11;;;;;;;10.00;9.10;;;23.10;99.90;;;;;;5005666;28;20418;-70
2022/07/24 01:24:36;;;;;;;10.30;9.40;;;23.10;99.90;;;;;;5004704;28;20184;-68
2022/07/24 01:27:02;;;;;;;9.37;8.63;;;23.10;99.90;;;;;;5005231;28;20210;-68
2022/07/24 01:29:28;;;;;;;10.30;9.20;;;23.10;99.90;;;;;;5005566;28;20225;-68
2022/07/24 01:31:53;;;;;;;9.83;9.03;;;22.90;99.90;;;;;;4987703;28;20180;-68
2022/07/24 01:34:19;;;;;;;9.80;8.90;;;22.90;99.90;;;;;;5005711;28;20175;-69
2022/07/24 01:36:44;;;;;;;10.80;9.80;;;22.90;99.90;;;;;;5005467;28;20209;-68
2022/07/24 01:39:10;;;;;;;9.60;8.80;;;23.10;99.90;;;;;;5005904;28;20219;-69
2022/07/24 01:41:36;;;;;;;9.90;9.10;;;23.10;99.90;;;;;;5005990;28;20179;-67
2022/07/24 01:44:02;;;;;;;10.57;9.60;;;23.00;99.90;;;;;;5006504;28;20542;-68
2022/07/24 01:46:27;;;;;;;10.63;9.83;;;22.90;99.90;;;;;;5005565;28;20180;-68
2022/07/24 01:48:53;;;;;;;9.70;8.80;;;22.80;99.90;;;;;;4987357;28;20282;-68
2022/07/24 01:51:19;;;;;;;10.20;9.23;;;22.80;99.90;;;;;;5005108;28;20269;-68
2022/07/24 01:53:44;;;;;;;9.40;8.60;;;22.80;99.90;;;;;;5004355;28;20609;-68
2022/07/24 01:56:10;;;;;;;9.50;8.60;;;22.90;99.90;;;;;;5005247;28;20834;-68
2022/07/24 01:58:35;;;;;;;10.73;9.93;;;22.90;99.90;;;;;;5004782;28;20273;-68
2022/07/24 02:01:01;;;;;;;9.60;8.90;;;22.90;99.90;;;;;;5005311;28;20183;-69
2022/07/24 02:03:26;;;;;;;9.33;8.63;;;22.80;99.90;;;;;;5004885;28;20184;-69
2022/07/24 02:05:52;;;;;;;9.87;9.07;;;22.60;99.90;;;;;;5004878;28;20196;-69
2022/07/24 02:08:18;;;;;;;12.03;10.13;;;22.60;99.90;;;;;;5003453;28;20184;-68
2022/07/24 02:10:43;;;;;;;11.10;10.17;;;22.50;99.90;;;;;;5004842;28;20168;-69
2022/07/24 02:13:09;;;;;;;9.80;9.00;;;22.50;99.90;;;;;;5004158;28;20183;-70
2022/07/24 02:15:34;;;;;;;10.03;9.23;;;22.50;99.90;;;;;;5004887;28;20287;-69
2022/07/24 02:18:02;;;;;;;10.17;9.23;;;22.50;99.90;;;;;;5003356;28;20199;-68
2022/07/24 02:20:28;;;;;;;9.77;8.90;;;22.30;99.90;;;;;;5004566;28;20239;-68
2022/07/24 02:22:54;;;;;;;9.97;9.20;;;22.30;99.90;;;;;;5004846;28;20490;-69
2022/07/24 02:25:20;;;;;;;9.90;8.83;;;22.30;99.90;;;;;;5003992;28;20433;-68
2022/07/24 02:27:46;;;;;;;9.20;8.50;;;22.30;99.90;;;;;;5004565;28;20488;-69
2022/07/24 02:30:17;;;;;;;10.17;9.30;;;22.30;99.90;;;;;;5004365;28;20837;-69
2022/07/24 02:32:43;;;;;;;9.77;8.87;;;22.20;99.90;;;;;;4987395;28;20180;-69
2022/07/24 02:35:09;;;;;;;10.23;9.33;;;22.10;99.90;;;;;;5004430;28;21188;-69
2022/07/24 02:37:40;;;;;;;9.37;8.57;;;22.20;99.90;;;;;;4987002;28;20291;-68
2022/07/24 02:40:07;;;;;;;10.20;9.30;;;22.30;99.90;;;;;;5004090;28;20444;-68
2022/07/24 02:42:33;;;;;;;9.97;8.97;;;22.30;99.90;;;;;;4970393;28;20425;-69
2022/07/24 02:44:59;;;;;;;8.40;7.67;;;22.20;99.90;;;;;;5005067;28;20451;-68
2022/07/24 02:47:25;;;;;;;10.20;9.30;;;22.20;99.90;;;;;;5005088;28;20450;-68
2022/07/24 02:49:50;;;;;;;11.00;10.20;;;22.20;99.90;;;;;;5004171;28;20276;-68
2022/07/24 02:52:16;;;;;;;10.37;9.47;;;22.20;99.90;;;;;;5005242;28;20636;-66
2022/07/24 02:54:41;;;;;;;10.57;9.57;;;22.20;99.90;;;;;;5005672;28;20218;-68
2022/07/24 02:57:07;;;;;;;9.80;8.90;;;22.10;99.90;;;;;;4986973;28;20188;-68
2022/07/24 02:59:33;;;;;;;10.33;9.53;;;22.10;99.90;;;;;;5005519;28;20196;-68
2022/07/24 03:01:58;;;;;;;10.10;9.20;;;22.00;99.90;;;;;;5004707;28;20184;-67
2022/07/24 03:04:24;;;;;;;12.07;11.00;;;22.00;99.90;;;;;;5006403;28;20187;-67
2022/07/24 03:06:49;;;;;;;9.87;8.97;;;22.00;99.90;;;;;;5006463;28;20469;-67
2022/07/24 03:09:15;;;;;;;11.90;10.10;;;21.90;99.90;;;;;;5006098;28;20267;-67
2022/07/24 03:11:41;;;;;;;11.13;10.23;;;21.80;99.90;;;;;;5006780;28;20191;-69
2022/07/24 03:14:06;;;;;;;10.53;9.50;;;21.80;99.90;;;;;;5006655;28;20214;-68
2022/07/24 03:16:32;;;;;;;11.07;10.07;;;21.80;99.90;;;;;;5007898;28;20183;-69
2022/07/24 03:18:57;;;;;;;11.73;10.73;;;21.80;99.90;;;;;;5007924;28;20684;-68
2022/07/24 03:21:24;;;;;;;10.27;9.27;;;21.70;99.90;;;;;;5007194;28;20188;-67
2022/07/24 03:23:49;;;;;;;9.57;8.77;;;21.60;99.90;;;;;;5006646;28;20358;-69
2022/07/24 03:26:15;;;;;;;10.90;10.00;;;21.70;99.90;;;;;;5006303;28;20605;-69
2022/07/24 03:28:41;;;;;;;11.30;10.50;;;21.80;99.90;;;;;;5007735;28;20219;-68
2022/07/24 03:31:07;;;;;;;12.50;11.20;;;21.80;99.90;;;;;;5008435;28;20183;-68
2022/07/24 03:33:33;;;;;;;11.97;11.00;;;21.80;99.90;;;;;;5008119;28;20241;-68
2022/07/24 03:35:59;;;;;;;11.63;10.63;;;21.80;99.90;;;;;;5007726;28;20194;-68
2022/07/24 03:38:25;;;;;;;11.13;10.13;;;21.80;99.90;;;;;;5007809;28;20466;-69
2022/07/24 03:40:51;;;;;;;11.47;10.47;;;21.80;99.90;;;;;;5007556;28;21026;-68
2022/07/24 03:43:17;;;;;;;9.97;9.17;;;21.80;99.90;;;;;;5007901;28;20522;-68
2022/07/24 03:45:43;;;;;;;10.93;10.10;;;21.70;99.90;;;;;;5007897;28;20593;-67
2022/07/24 03:48:08;;;;;;;11.60;10.70;;;21.60;99.90;;;;;;5007803;28;20218;-67
2022/07/24 03:50:34;;;;;;;11.10;10.17;;;21.60;99.90;;;;;;5007970;28;20826;-68
2022/07/24 03:52:59;;;;;;;12.10;10.93;;;21.50;99.90;;;;;;4989876;28;20206;-68
2022/07/24 03:55:25;;;;;;;11.40;10.40;;;21.50;99.90;;;;;;5007427;28;20180;-68
2022/07/24 03:57:51;;;;;;;10.67;9.80;;;21.50;99.90;;;;;;5007046;28;20557;-68
2022/07/24 04:00:17;;;;;;;12.07;11.13;;;21.40;99.90;;;;;;5007412;28;20204;-68
2022/07/24 04:02:43;;;;;;;10.90;10.00;;;21.40;99.90;;;;;;5007319;28;20218;-67
2022/07/24 04:05:09;;;;;;;12.00;11.00;;;21.30;99.90;;;;;;5007520;28;20446;-67
2022/07/24 04:07:36;;;;;;;12.20;11.20;;;21.20;99.90;;;;;;5007911;28;20203;-67
2022/07/24 04:10:03;;;;;;;12.00;11.00;;;21.30;99.90;;;;;;5007234;28;20878;-68
2022/07/24 04:12:28;;;;;;;12.13;10.93;;;21.30;99.90;;;;;;5006583;28;20462;-67
2022/07/24 04:14:54;;;;;;;10.87;9.97;;;21.40;99.90;;;;;;5007252;28;20853;-68
2022/07/24 04:17:20;;;;;;;11.47;10.47;;;21.40;99.90;;;;;;5005634;28;20211;-67
2022/07/24 04:19:45;;;;;;;11.83;10.57;;;21.30;99.90;;;;;;5006930;28;20234;-67
2022/07/24 04:22:11;;;;;;;11.80;10.80;;;21.40;99.90;;;;;;5006630;28;21224;-67
2022/07/24 04:24:36;;;;;;;11.80;10.87;;;21.50;99.90;;;;;;5007228;28;20218;-68
2022/07/24 04:27:02;;;;;;;11.77;10.77;;;21.60;99.90;;;;;;5006910;28;20192;-68
2022/07/24 04:29:27;;;;;;;11.57;10.57;;;21.70;99.90;;;;;;5007059;28;20218;-68
2022/07/24 04:31:53;;;;;;;11.50;10.50;;;21.80;99.90;;;;;;5006613;28;20241;-69
2022/07/24 04:34:18;;;;;;;11.57;10.47;;;21.60;99.90;;;;;;5006941;28;20641;-68
2022/07/24 04:36:44;;;;;;;12.13;11.13;;;21.70;99.90;;;;;;5006286;28;20176;-68
2022/07/24 04:39:10;;;;;;;12.30;11.10;;;21.70;99.90;;;;;;5005418;28;20211;-68
2022/07/24 04:41:35;;;;;;;11.37;10.37;;;21.60;99.90;;;;;;5006454;28;20240;-68
2022/07/24 04:44:01;;;;;;;12.00;11.00;;;21.50;99.90;;;;;;5006934;28;20179;-69
2022/07/24 04:46:27;;;;;;;14.00;11.20;;;21.60;99.90;;;;;;5006301;28;20644;-66
2022/07/24 04:48:53;;;;;;;12.17;11.17;;;21.60;99.90;;;;;;5007654;28;20442;-70
2022/07/24 04:51:18;;;;;;;12.87;11.43;;;21.70;99.90;;;;;;5006905;28;20554;-68
2022/07/24 04:53:44;;;;;;;11.63;10.60;;;21.80;99.90;;;;;;5006501;28;20184;-70
2022/07/24 04:56:09;;;;;;;12.90;11.83;;;21.90;99.90;;;;;;5006427;28;20556;-68
2022/07/24 04:58:35;;;;;;;11.37;10.47;;;21.90;99.90;;;;;;5006383;28;20738;-68
2022/07/24 05:01:01;;;;;;;12.70;11.60;;;22.00;99.90;;;;;;5006618;28;20175;-69
2022/07/24 05:03:26;;;;;;;11.83;10.73;;;22.10;99.90;;;;;;5006872;28;20195;-68
2022/07/24 05:05:52;;;;;;;11.23;10.43;;;22.10;99.90;;;;;;5006592;28;20179;-68
2022/07/24 05:08:18;;;;;;;12.47;11.37;;;22.10;99.90;;;;;;5006281;28;20191;-69
2022/07/24 05:10:43;;;;;;;11.50;10.60;;;22.20;99.90;;;;;;5006798;28;20184;-69
2022/07/24 05:13:09;;;;;;;11.73;10.70;;;22.20;99.90;;;;;;5006675;28;20188;-67
2022/07/24 05:15:34;;;;;;;10.50;9.60;;;22.30;99.90;;;;;;5006235;28;20199;-69
2022/07/24 05:18:00;;;;;;;10.30;9.50;;;22.40;99.90;;;;;;5005731;28;20250;-69
2022/07/24 05:20:26;;;;;;;10.77;9.77;;;22.50;99.90;;;;;;5006270;28;20218;-67
2022/07/24 05:22:51;;;;;;;11.10;10.17;;;22.60;99.90;;;;;;5005575;28;20176;-67
2022/07/24 05:25:17;;;;;;;11.67;10.70;;;22.70;99.90;;;;;;5006378;28;20267;-68
2022/07/24 05:27:43;;;;;;;11.37;10.40;;;22.80;99.90;;;;;;5006168;28;20300;-67
2022/07/24 05:30:09;;;;;;;11.50;10.60;;;22.80;99.90;;;;;;5006013;28;20438;-70
2022/07/24 05:32:35;;;;;;;12.07;11.10;;;22.90;99.90;;;;;;4987962;28;20188;-68
2022/07/24 05:35:00;;;;;;;12.33;11.33;;;22.90;99.90;;;;;;5008767;28;20473;-67
2022/07/24 05:37:26;;;;;;;12.23;10.47;;;23.00;99.90;;;;;;5005387;28;20200;-68
2022/07/24 05:39:51;;;;;;;12.17;11.20;;;23.10;99.90;;;;;;5005787;28;20231;-69
2022/07/24 05:42:17;;;;;;;12.47;11.53;;;23.20;99.90;;;;;;5005237;28;20187;-68
2022/07/24 05:44:43;;;;;;;11.13;10.23;;;23.30;99.90;;;;;;5005174;28;20355;-68
2022/07/24 05:47:08;;;;;;;11.90;10.80;;;23.40;99.90;;;;;;5005370;28;20191;-69
2022/07/24 05:49:34;;;;;;;11.33;10.33;;;23.50;99.90;;;;;;5005268;28;20200;-68
2022/07/24 05:51:59;;;;;;;12.03;11.03;;;23.60;99.90;;;;;;5004764;28;20218;-69
2022/07/24 05:54:25;;;;;;;11.00;10.10;;;23.80;99.90;;;;;;5005866;28;20168;-70
2022/07/24 05:56:51;;;;;;;10.30;9.50;;;23.90;99.90;;;;;;5005305;28;20179;-70
2022/07/24 05:59:16;;;;;;;10.83;9.90;;;24.00;99.90;;;;;;5004832;28;20212;-68
2022/07/24 06:01:42;;;;;;;11.57;10.60;;;24.10;99.90;;;;;;5005399;28;20283;-66
2022/07/24 06:04:08;;;;;;;11.33;10.33;;;24.20;99.90;;;;;;5004788;28;20279;-70
2022/07/24 06:06:33;;;;;;;11.00;10.10;;;24.30;99.90;;;;;;5004916;28;20187;-68
2022/07/24 06:08:59;;;;;;;11.93;10.80;;;24.50;99.90;;;;;;5004803;28;20208;-68
2022/07/24 06:11:25;;;;;;;10.77;9.97;;;24.50;99.90;;;;;;5004075;28;20219;-69
2022/07/24 06:13:50;;;;;;;11.00;9.80;;;24.60;99.90;;;;;;5005518;28;20275;-68
2022/07/24 06:16:16;;;;;;;11.60;10.50;;;24.70;99.90;;;;;;5004859;28;20756;-67
2022/07/24 06:18:41;;;;;;;11.50;10.50;;;24.80;99.90;;;;;;5005054;28;20215;-68
2022/07/24 06:21:07;;;;;;;10.57;9.67;;;24.90;99.90;;;;;;4987313;28;20270;-68
2022/07/24 06:23:33;;;;;;;11.73;10.73;;;25.00;99.90;;;;;;4987765;28;20191;-66
2022/07/24 06:25:59;;;;;;;10.80;9.70;;;25.20;99.90;;;;;;5004997;28;20282;-67
2022/07/24 06:28:24;;;;;;;10.63;9.83;;;25.20;99.90;;;;;;5005417;28;20183;-67
2022/07/24 06:30:50;;;;;;;12.17;11.13;;;25.30;99.90;;;;;;4987330;28;20735;-68
2022/07/24 06:33:16;;;;;;;12.40;11.50;;;25.30;99.90;;;;;;4987233;28;20254;-68
2022/07/24 06:35:42;;;;;;;11.50;10.40;;;25.30;99.90;;;;;;5004870;28;20197;-68
2022/07/24 06:38:09;;;;;;;11.17;10.37;;;25.30;99.90;;;;;;5004601;28;20199;-67
2022/07/24 06:40:36;;;;;;;10.60;9.80;;;25.30;99.90;;;;;;5004754;28;20608;-68
2022/07/24 06:43:02;;;;;;;11.97;10.97;;;25.10;99.90;;;;;;5003770;28;20418;-67
2022/07/24 06:45:31;;;;;;;11.73;10.77;;;25.10;99.90;;;;;;4986738;28;20784;-68
2022/07/24 06:47:56;;;;;;;11.60;10.60;;;25.40;99.90;;;;;;5004714;28;20188;-68
2022/07/24 06:50:22;;;;;;;11.50;10.50;;;25.40;99.90;;;;;;4985710;28;20477;-68
2022/07/24 06:52:47;;;;;;;11.00;10.10;;;25.40;99.90;;;;;;5004306;28;20278;-69
2022/07/24 06:55:13;;;;;;;10.97;10.07;;;25.50;99.90;;;;;;5004029;28;20212;-69
2022/07/24 06:57:39;;;;;;;10.50;9.70;;;25.50;99.90;;;;;;5004633;28;20732;-68
2022/07/24 07:00:09;;;;;;;11.10;10.20;;;25.80;99.90;;;;;;5004273;28;20529;-68
2022/07/24 07:02:34;;;;;;;12.20;11.20;;;26.20;99.90;;;;;;5003575;28;20222;-68
2022/07/24 07:05:00;;;;;;;13.27;12.07;;;26.00;99.90;;;;;;5004255;28;20415;-67
2022/07/24 07:07:26;;;;;;;13.10;11.90;;;25.40;99.90;;;;;;5003872;28;20176;-67
2022/07/24 07:09:51;;;;;;;12.17;11.17;;;25.40;99.90;;;;;;5003070;28;20205;-67
2022/07/24 07:12:17;;;;;;;13.83;12.53;;;25.50;99.90;;;;;;5003557;28;20557;-66
2022/07/24 07:14:42;;;;;;;14.43;13.20;;;25.30;99.90;;;;;;5004011;28;20180;-66
2022/07/24 07:17:08;;;;;;;15.13;13.83;;;25.30;99.90;;;;;;4986115;28;20632;-68
2022/07/24 07:19:34;;;;;;;14.80;13.60;;;25.40;99.90;;;;;;5004636;28;20212;-67
2022/07/24 07:22:00;;;;;;;14.77;13.43;;;25.40;99.90;;;;;;5002478;28;20469;-67
2022/07/24 07:24:25;;;;;;;14.03;12.83;;;25.70;99.90;;;;;;5003705;28;20191;-67
2022/07/24 07:26:51;;;;;;;13.80;12.70;;;25.50;99.90;;;;;;5004478;28;20194;-67
2022/07/24 07:29:17;;;;;;;14.70;13.40;;;25.40;99.90;;;;;;5003870;28;20203;-67
2022/07/24 07:31:42;;;;;;;14.77;13.43;;;25.30;99.90;;;;;;5003783;28;20218;-66
2022/07/24 07:34:08;;;;;;;14.00;12.90;;;25.30;99.90;;;;;;5003901;28;20321;-67
2022/07/24 07:36:34;;;;;;;12.97;11.97;;;25.50;99.90;;;;;;5003923;28;20224;-68
2022/07/24 07:39:00;;;;;;;13.47;12.37;;;25.50;99.90;;;;;;5003783;28;20207;-68
2022/07/24 07:41:25;;;;;;;13.77;12.57;;;25.50;99.90;;;;;;5004129;28;21026;-68
2022/07/24 07:43:51;;;;;;;13.17;12.17;;;25.40;99.90;;;;;;5004080;28;20212;-68
2022/07/24 07:46:18;;;;;;;12.63;11.70;;;25.50;99.90;;;;;;5003104;28;20229;-68
2022/07/24 07:48:43;;;;;;;13.67;12.67;;;25.70;99.90;;;;;;5003701;28;20513;-68
2022/07/24 07:51:09;;;;;;;12.97;11.97;;;25.70;99.90;;;;;;5003345;28;20833;-68
2022/07/24 07:53:55;;;;;;;12.67;11.67;;;25.70;99.90;;;;;;5002973;28;20184;-68
2022/07/24 07:56:20;;;;;;;13.40;12.30;;;25.80;99.90;;;;;;5003930;28;20272;-67
2022/07/24 07:58:46;;;;;;;12.63;11.57;;;25.80;99.90;;;;;;5004288;28;21006;-68
2022/07/24 08:01:12;;;;;;;13.33;12.00;;;25.70;99.90;;;;;;5003304;28;20621;-66
2022/07/24 08:03:37;;;;;;;12.50;11.40;;;25.70;99.90;;;;;;5003450;28;20834;-67
2022/07/24 08:06:04;;;;;;;12.63;11.60;;;25.90;99.90;;;;;;5003961;28;20203;-67
2022/07/24 08:08:30;;;;;;;12.33;11.23;;;26.10;99.90;;;;;;5003738;28;20219;-68
2022/07/24 08:10:56;;;;;;;11.37;10.40;;;26.30;99.90;;;;;;5004216;28;20768;-66
2022/07/24 08:13:21;;;;;;;11.47;10.47;;;26.60;99.90;;;;;;5004190;28;20183;-67
2022/07/24 08:15:47;;;;;;;11.40;10.43;;;26.50;99.90;;;;;;5007119;28;20258;-69
2022/07/24 08:18:12;;;;;;;13.00;9.73;;;26.40;99.90;;;;;;5006639;28;20195;-67
2022/07/24 08:20:38;;;;;;;10.80;9.90;;;26.80;99.90;;;;;;5006922;28;20574;-67
2022/07/24 08:23:03;;;;;;;10.33;9.53;;;27.00;99.90;;;;;;5006365;28;20172;-68
2022/07/24 08:25:29;;;;;;;9.70;8.90;;;27.00;99.90;;;;;;5006681;28;20226;-69
2022/07/24 08:27:55;;;;;;;10.70;9.70;;;27.20;99.90;;;;;;5007053;28;20176;-67
2022/07/24 08:30:21;;;;;;;11.07;10.13;;;27.40;99.90;;;;;;5006700;28;20199;-68
2022/07/24 08:32:47;;;;;;;11.40;10.50;;;27.70;99.90;;;;;;5007296;28;20180;-67
2022/07/24 08:35:14;;;;;;;10.10;9.30;;;27.70;99.90;;;;;;5006475;28;20768;-69
2022/07/24 08:37:41;;;;;;;11.20;10.20;;;27.70;99.90;;;;;;5006161;28;20623;-68
2022/07/24 08:40:08;;;;;;;12.20;11.10;;;27.80;99.60;;;;;;5006192;28;20430;-66
2022/07/24 08:42:35;;;;;;;9.77;8.97;;;27.60;99.60;;;;;;5006722;28;20395;-67
2022/07/24 08:45:01;;;;;;;9.23;8.43;;;27.80;99.50;;;;;;5006400;28;20875;-68
2022/07/24 08:47:29;;;;;;;9.90;9.10;;;27.70;99.30;;;;;;5006683;28;20407;-68
2022/07/24 08:49:57;;;;;;;10.17;9.37;;;27.80;99.00;;;;;;5006259;28;20513;-68
2022/07/24 08:52:23;;;;;;;9.40;8.70;;;27.70;98.80;;;;;;5005617;28;20433;-67
2022/07/24 08:54:49;;;;;;;8.90;8.23;;;27.80;99.00;;;;;;5006514;28;20422;-68
2022/07/24 08:57:15;;;;;;;8.80;8.10;;;27.90;98.60;;;;;;5006058;28;20433;-67
2022/07/24 08:59:41;;;;;;;9.90;9.00;;;27.80;98.30;;;;;;5006221;28;20948;-67
2022/07/24 09:02:07;;;;;;;9.47;8.67;;;27.70;98.00;;;;;;5006315;28;20199;-69
2022/07/24 09:04:35;;;;;;;9.80;8.90;;;27.60;98.20;;;;;;5006004;28;20418;-66
2022/07/24 09:07:03;;;;;;;9.67;8.97;;;27.60;98.20;;;;;;5006075;28;20406;-67
2022/07/24 09:09:29;;;;;;;9.33;8.53;;;27.60;98.10;;;;;;5035354;22;20497;-69
2022/07/24 09:12:06;;;;;;;8.83;8.13;;;27.90;97.70;;;;;;5024440;28;21018;-67
2022/07/24 09:14:34;;;;;;;9.50;8.70;;;28.00;97.40;;;;;;5025842;28;20611;-67
2022/07/24 09:17:20;;;;;;;9.83;8.83;;;28.00;97.60;;;;;;5025940;28;20925;-68
2022/07/24 09:19:56;;;;;;;9.13;8.43;;;28.30;96.80;;;;;;5025787;28;20724;-67
2022/07/24 09:22:29;;;;;;;9.77;8.77;;;28.50;96.40;;;;;;5026097;28;20420;-68
2022/07/24 09:25:08;;;;;;;8.80;8.00;;;28.30;96.00;;;;;;5024497;28;20457;-69
2022/07/24 09:27:36;;;;;;;9.40;8.70;;;28.50;96.10;;;;;;5025794;28;20913;-67
2022/07/24 09:30:03;;;;;;;9.10;8.23;;;28.30;96.10;;;;;;5025223;28;20430;-67
2022/07/24 09:32:29;;;;;;;8.33;7.73;;;28.40;95.80;;;;;;5025424;28;20393;-68
2022/07/24 09:34:56;;;;;;;9.03;8.30;;;28.50;95.70;;;;;;5025292;28;20895;-67
2022/07/24 09:37:22;;;;;;;10.50;9.57;;;28.80;95.50;;;;;;5025534;28;20183;-67
2022/07/24 09:39:48;;;;;;;9.97;9.07;;;28.90;95.10;;;;;;5025663;28;20430;-69
2022/07/24 09:42:14;;;;;;;9.20;8.50;;;28.60;95.10;;;;;;5007069;28;20406;-66
2022/07/24 09:44:40;;;;;;;9.70;8.80;;;28.60;95.40;;;;;;5025672;28;20530;-68
2022/07/24 09:47:11;;;;;;;9.07;8.37;;;28.90;95.00;;;;;;5025203;28;20398;-67
2022/07/24 09:49:38;;;;;;;9.13;8.23;;;28.90;94.30;;;;;;5025097;28;20468;-67
2022/07/24 09:52:15;;;;;;;9.30;8.60;;;28.60;94.90;;;;;;5024839;28;20457;-67
2022/07/24 09:54:45;;;;;;;9.30;8.50;;;29.00;94.60;;;;;;5025491;28;20499;-68
2022/07/24 09:57:24;;;;;;;8.93;8.33;;;29.10;94.30;;;;;;5024834;28;20410;-68
2022/07/24 09:59:51;;;;;;;9.23;8.40;;;29.10;94.00;;;;;;5025435;28;21077;-69
2022/07/24 10:02:20;;;;;;;8.40;7.70;;;29.10;94.00;;;;;;5025160;28;20864;-69
2022/07/24 10:04:48;;;;;;;8.93;8.10;;;29.20;93.70;;;;;;5024952;28;20493;-67
2022/07/24 10:07:17;;;;;;;8.93;8.03;;;29.50;93.20;;;;;;5024706;28;20933;-67
2022/07/24 10:09:48;;;;;;;9.23;8.37;;;29.70;92.70;;;;;;5024836;28;20460;-67
2022/07/24 10:12:16;;;;;;;11.53;9.13;;;29.40;92.70;;;;;;5024194;28;20418;-67
2022/07/24 10:14:46;;;;;;;10.30;7.50;;;29.50;92.30;;;;;;5005851;28;20432;-67
2022/07/24 10:17:13;;;;;;;7.97;7.37;;;29.70;92.20;;;;;;5007288;28;20398;-68
2022/07/24 10:19:45;;;;;;;13.77;9.87;;;29.60;92.00;;;;;;5024832;28;20985;-69
2022/07/24 10:22:16;;;;;;;8.43;7.73;;;29.50;92.20;;;;;;5024772;28;20405;-68
2022/07/24 10:25:07;;;;;;;8.07;7.47;;;29.60;92.10;;;;;;5024796;28;20442;-66
2022/07/24 10:27:35;;;;;;;10.00;9.00;;;29.50;93.20;;;;;;5024222;28;20422;-67
2022/07/24 10:30:07;;;;;;;9.07;8.37;;;29.50;92.30;;;;;;5023820;28;20456;-68
2022/07/24 10:32:34;;;;;;;9.77;8.87;;;29.20;92.50;;;;;;5023250;28;20413;-66
2022/07/24 10:35:20;;;;;;;9.60;8.80;;;29.20;92.40;;;;;;5024844;28;20410;-69
2022/07/24 10:38:09;;;;;;;9.87;9.07;;;29.50;92.00;;;;;;5023838;28;20461;-67
2022/07/24 10:40:48;;;;;;;9.57;8.77;;;29.60;91.80;;;;;;5023483;28;20434;-67
2022/07/24 10:43:19;;;;;;;9.70;8.90;;;30.10;91.60;;;;;;5019356;28;20406;-69
2022/07/24 10:45:53;;;;;;;8.30;7.60;;;30.20;90.50;;;;;;5024039;28;20480;-67
2022/07/24 10:48:27;;;;;;;8.63;8.03;;;30.00;90.90;;;;;;5024095;28;20579;-67
2022/07/24 10:50:59;;;;;;;8.50;7.70;;;30.40;91.20;;;;;;5024043;28;20433;-67
2022/07/24 10:53:42;;;;;;;8.90;8.00;;;30.80;89.10;;;;;;5024191;28;20429;-68
2022/07/24 10:56:32;;;;;;;8.60;7.90;;;30.60;87.80;;;;;;5006204;28;20418;-68
2022/07/24 10:58:59;;;;;;;8.73;8.13;;;30.10;89.50;;;;;;5024135;28;20450;-68
2022/07/24 11:01:38;;;;;;;9.00;8.17;;;30.30;90.00;;;;;;5024378;28;20417;-69
2022/07/24 11:04:29;;;;;;;9.37;8.57;;;30.70;89.00;;;;;;5024354;28;20426;-68
2022/07/24 11:07:12;;;;;;;8.70;8.00;;;31.00;87.30;;;;;;5024712;28;20418;-68
2022/07/24 11:09:56;;;;;;;8.57;7.97;;;31.40;86.70;;;;;;5023881;28;20823;-68
2022/07/24 11:12:30;;;;;;;8.80;8.17;;;31.60;85.90;;;;;;5024315;28;20981;-67
2022/07/24 11:18:13;;;;;;;9.47;8.60;;;31.80;82.80;;;;;;5013253;28;20804;-68
2022/07/24 11:20:39;;;;;;;9.47;8.50;;;31.60;84.20;;;;;;5023705;28;20463;-67
2022/07/24 11:23:19;;;;;;;7.70;7.10;;;31.40;82.50;;;;;;5022769;28;20418;-67
2022/07/24 11:25:44;;;;;;;8.57;7.87;;;31.30;83.10;;;;;;5023909;28;20179;-68
2022/07/24 11:28:10;;;;;;;8.90;8.20;;;31.70;82.60;;;;;;5023440;28;20487;-68
2022/07/24 11:30:42;;;;;;;9.30;8.60;;;32.40;80.70;;;;;;5023514;28;20207;-69
2022/07/24 11:33:10;;;;;;;8.30;7.63;;;32.80;77.80;;;;;;5023877;28;20265;-69
2022/07/24 11:35:37;;;;;;;8.83;8.13;;;34.70;76.40;;;;;;5023937;28;20975;-69
2022/07/24 11:38:05;;;;;;;9.40;8.00;;;36.60;67.80;;;;;;5023280;28;20441;-68
2022/07/24 11:40:32;;;;;;;7.80;7.10;;;37.70;62.30;;;;;;5023268;28;20429;-67
2022/07/24 11:43:01;;;;;;;8.80;7.90;;;37.80;60.20;;;;;;5023606;28;20918;-67
2022/07/24 11:45:27;;;;;;;8.53;7.83;;;36.30;61.80;;;;;;5023321;28;20410;-68
2022/07/24 11:47:54;;;;;;;9.00;8.30;;;34.90;64.10;;;;;;5023334;28;20425;-67
2022/07/24 11:50:23;;;;;;;8.73;8.03;;;34.00;65.80;;;;;;5027759;28;20207;-67
2022/07/24 11:52:49;;;;;;;7.90;7.30;;;33.70;68.00;;;;;;5027409;28;20412;-68
2022/07/24 11:55:19;;;;;;;8.00;7.43;;;33.80;68.10;;;;;;5026989;28;20422;-68
2022/07/24 11:57:50;;;;;;;9.00;8.40;;;35.20;64.60;;;;;;5027286;28;20445;-68
2022/07/24 12:00:19;;;;;;;8.13;7.40;;;35.90;61.70;;;;;;5027249;28;20464;-69
2022/07/24 12:02:47;;;;;;;9.07;8.30;;;35.60;62.40;;;;;;5007987;28;20425;-68
2022/07/24 12:05:13;;;;;;;8.30;7.53;;;35.70;61.20;;;;;;5027576;28;20770;-68
2022/07/24 12:07:39;;;;;;;8.40;7.80;;;35.30;62.20;;;;;;5026528;28;20421;-68
2022/07/24 12:10:05;;;;;;;8.20;7.60;;;35.60;61.20;;;;;;5027527;28;20869;-68
2022/07/24 12:12:32;;;;;;;8.87;8.07;;;35.40;60.40;;;;;;5026629;28;20290;-68
2022/07/24 12:15:09;;;;;;;8.00;7.40;;;34.90;61.50;;;;;;5027643;28;20512;-68
2022/07/24 12:17:55;;;;;;;8.37;7.70;;;35.20;62.60;;;;;;5008339;28;20422;-68
2022/07/24 12:20:27;;;;;;;7.90;7.30;;;36.60;60.00;;;;;;5026691;28;20433;-67
2022/07/24 12:22:53;;;;;;;7.60;7.10;;;37.50;58.00;;;;;;5007735;28;20413;-68
2022/07/24 12:25:20;;;;;;;8.17;7.57;;;38.00;55.50;;;;;;5009165;28;20513;-66
2022/07/24 12:27:47;;;;;;;7.50;6.90;;;39.10;53.70;;;;;;5025772;28;20426;-67
2022/07/24 12:30:43;;;;;;;7.57;7.07;;;39.30;52.70;;;;;;5026395;28;20548;-67
2022/07/24 12:33:11;;;;;;;7.80;7.10;;;39.30;52.00;;;;;;5013077;28;20437;-67
2022/07/24 12:35:56;;;;;;;7.60;7.10;;;39.00;51.50;;;;;;5026315;28;20468;-67
2022/07/24 12:38:29;;;;;;;7.10;6.43;;;38.60;51.30;;;;;;5019909;28;20977;-68
2022/07/24 12:41:11;;;;;;;7.53;6.80;;;39.90;50.40;;;;;;5026827;28;20434;-68